Search for airport 
image banner adimage banner ad
image banner ad

SVOT - Santa Maria La Tigra

Located in Apure, Venezuela

ICAO - SVOT, IATA -

Data provided by Airmate  

General information

Coordinates: N6°30'0" W67°8'0"
Elevation is 390 feet MSL.
 
Rated:
View ratings: [VIEW]


View others Airports in Barinas

Operational data

Open for public use
Current time UTC:
Current local time:
Weather at : SKPC - Puerto Carreno-German Olano ( 53 km )
METAR: SKPC 062200Z 00000KT 8000 -RA BKN015 SCT070 22/21 A2988
View NOTAMs / SUP AIP / TFR affecting this airport [VIEW]
Communications frequencies: [VIEW]

Runways:

RWY identifierQFULength (ft)Width (ft)SurfaceLDA (ft)
0400
2200

Airport contact information

Address: Apure Venezuela

Satellite view of SVOT